createdAt,value
2023-04-06T00:00:26.257Z,9.53
2023-04-06T00:03:30.583Z,10.20
2023-04-06T00:06:34.194Z,9.90
2023-04-06T00:09:37.311Z,10.37
2023-04-06T00:12:40.148Z,11.63
2023-04-06T00:15:42.989Z,10.53
2023-04-06T00:18:47.641Z,8.37
2023-04-06T00:21:50.537Z,10.97
2023-04-06T00:24:53.442Z,10.90
2023-04-06T00:27:56.531Z,9.87
2023-04-06T00:30:59.370Z,10.63
2023-04-06T00:34:03.556Z,9.47
2023-04-06T00:37:06.388Z,8.63
2023-04-06T00:40:10.469Z,10.33
2023-04-06T00:43:14.145Z,10.30
2023-04-06T00:46:17.041Z,9.10
2023-04-06T00:49:21.259Z,9.50
2023-04-06T00:52:24.491Z,9.83
2023-04-06T00:55:28.955Z,9.07
2023-04-06T00:58:31.962Z,9.60
2023-04-06T01:01:34.875Z,8.63
2023-04-06T01:04:39.164Z,8.87
2023-04-06T01:07:42.140Z,8.73
2023-04-06T01:10:45.140Z,9.60
2023-04-06T01:13:48.469Z,10.70
2023-04-06T01:16:52.549Z,9.07
2023-04-06T01:19:56.783Z,9.97
2023-04-06T01:23:01.027Z,10.43
2023-04-06T01:26:03.861Z,8.73
2023-04-06T01:29:07.134Z,8.30
2023-04-06T01:32:10.436Z,8.20
2023-04-06T01:35:13.332Z,8.50
2023-04-06T01:38:17.653Z,7.87
2023-04-06T01:41:20.997Z,8.17
2023-04-06T01:44:23.887Z,7.13
2023-04-06T01:47:26.763Z,7.23
2023-04-06T01:50:29.810Z,7.67
2023-04-06T01:53:34.004Z,7.80
2023-04-06T01:56:36.878Z,6.60
2023-04-06T01:59:39.739Z,7.63
2023-04-06T02:02:42.714Z,9.07
2023-04-06T02:05:45.690Z,7.20
2023-04-06T02:08:49.892Z,7.37
2023-04-06T02:11:52.971Z,6.53
2023-04-06T02:14:56.232Z,6.23
2023-04-06T02:17:59.643Z,7.87
2023-04-06T02:21:02.620Z,7.37
2023-04-06T02:24:07.360Z,6.07
2023-04-06T02:27:10.334Z,6.40
2023-04-06T02:30:13.754Z,6.63
2023-04-06T02:33:16.604Z,7.10
2023-04-06T02:36:19.454Z,7.23
2023-04-06T02:39:23.741Z,8.63
2023-04-06T02:42:26.645Z,6.97
2023-04-06T02:45:29.530Z,6.73
2023-04-06T02:48:32.530Z,7.10
2023-04-06T02:51:35.425Z,7.00
2023-04-06T02:54:39.760Z,5.80
2023-04-06T02:57:42.753Z,6.03
2023-04-06T03:00:45.707Z,5.83
2023-04-06T03:03:48.699Z,6.87
2023-04-06T03:06:51.765Z,6.13
2023-04-06T03:09:56.071Z,5.37
2023-04-06T03:12:59.006Z,6.63
2023-04-06T03:16:01.999Z,5.87
2023-04-06T03:19:04.874Z,5.10
2023-04-06T03:22:07.763Z,6.03
2023-04-06T03:25:12.071Z,6.20
2023-04-06T03:28:15.452Z,7.00
2023-04-06T03:31:18.363Z,6.87
2023-04-06T03:34:21.235Z,7.60
2023-04-06T03:37:24.080Z,8.03
2023-04-06T03:40:28.604Z,8.03
2023-04-06T03:43:31.445Z,6.60
2023-04-06T03:46:34.360Z,5.93
2023-04-06T03:49:38.566Z,5.83
2023-04-06T03:52:42.787Z,5.87
2023-04-06T03:55:46.998Z,5.30
2023-04-06T03:58:51.647Z,5.87
2023-04-06T04:01:54.760Z,6.90
2023-04-06T04:04:57.656Z,6.43
2023-04-06T04:08:00.672Z,5.90
2023-04-06T04:11:04.947Z,5.60
2023-04-06T04:14:07.870Z,5.97
2023-04-06T04:17:10.725Z,5.90
2023-04-06T04:20:13.805Z,9.53
2023-04-06T04:23:16.656Z,6.47
2023-04-06T04:26:21.411Z,6.60
2023-04-06T04:29:24.395Z,7.03
2023-04-06T04:32:28.484Z,6.77
2023-04-06T04:35:31.470Z,6.10
2023-04-06T04:38:34.711Z,5.93
2023-04-06T04:41:39.050Z,6.10
2023-04-06T04:44:41.879Z,5.23
2023-04-06T04:47:44.742Z,7.53
2023-04-06T04:50:47.717Z,6.80
2023-04-06T04:53:50.806Z,6.93
2023-04-06T04:56:55.029Z,12.10
2023-04-06T04:59:58.208Z,6.03
2023-04-06T05:03:01.225Z,8.60
2023-04-06T05:06:04.333Z,6.77
2023-04-06T05:09:07.263Z,6.70
2023-04-06T05:12:11.970Z,8.60
2023-04-06T05:15:15.443Z,7.17
2023-04-06T05:18:18.589Z,21.70
2023-04-06T05:21:21.459Z,10.00
2023-04-06T05:24:24.294Z,8.67
2023-04-06T05:27:28.552Z,7.87
2023-04-06T05:30:31.785Z,7.97
2023-04-06T05:33:34.742Z,7.70
2023-04-06T05:36:38.159Z,8.03
2023-04-06T05:39:41.157Z,7.43
2023-04-06T05:42:45.825Z,8.80
2023-04-06T05:45:48.745Z,12.33
2023-04-06T05:48:51.595Z,7.57
2023-04-06T05:51:54.431Z,7.17
2023-04-06T05:54:57.366Z,7.87
2023-04-06T05:58:01.580Z,7.30
2023-04-06T06:01:05.720Z,8.20
2023-04-06T06:04:08.566Z,7.63
2023-04-06T06:07:11.460Z,7.17
2023-04-06T06:10:14.408Z,7.27
2023-04-06T06:13:18.732Z,8.50
2023-04-06T06:16:21.668Z,7.57
2023-04-06T06:19:24.594Z,6.90
2023-04-06T06:22:27.689Z,7.00
2023-04-06T06:25:31.836Z,7.93
2023-04-06T06:28:36.226Z,7.67
2023-04-06T06:31:39.267Z,9.37
2023-04-06T06:34:42.244Z,6.93
2023-04-06T06:37:45.463Z,8.27
2023-04-06T06:40:48.679Z,8.47
2023-04-06T06:43:53.197Z,6.10
2023-04-06T06:46:56.332Z,7.27
2023-04-06T06:49:59.214Z,7.83
2023-04-06T06:53:02.214Z,7.60
2023-04-06T06:56:05.362Z,7.60
2023-04-06T06:59:09.738Z,7.30
2023-04-06T07:02:12.956Z,11.57
2023-04-06T07:05:27.734Z,6.83
2023-04-06T07:08:32.105Z,7.67
2023-04-06T07:11:34.967Z,6.87
2023-04-06T07:14:39.569Z,7.23
2023-04-06T07:17:42.583Z,8.03
2023-04-06T07:20:46.025Z,8.03
2023-04-06T07:23:49.744Z,6.23
2023-04-06T07:26:52.593Z,6.63
2023-04-06T07:29:56.876Z,8.83
2023-04-06T07:33:00.282Z,7.37
2023-04-06T07:36:03.208Z,7.73
2023-04-06T07:39:06.309Z,8.93
2023-04-06T07:42:09.305Z,9.17
2023-04-06T07:45:13.719Z,8.60
2023-04-06T07:48:16.641Z,6.60
2023-04-06T07:51:19.565Z,10.43
2023-04-06T07:54:22.625Z,14.03
2023-04-06T07:57:26.080Z,8.83
2023-04-06T08:00:30.923Z,7.00
2023-04-06T08:03:36.283Z,7.80
2023-04-06T08:06:39.407Z,7.23
2023-04-06T08:09:42.435Z,7.93
2023-04-06T08:12:45.433Z,8.00
2023-04-06T08:15:49.914Z,8.13
2023-04-06T08:18:52.866Z,7.40
2023-04-06T08:21:55.841Z,7.80
2023-04-06T08:24:58.756Z,8.03
2023-04-06T08:28:01.716Z,7.13
2023-04-06T08:31:08.080Z,7.77
2023-04-06T08:34:13.282Z,7.97
2023-04-06T08:37:16.981Z,7.33
2023-04-06T08:40:20.414Z,8.20
2023-04-06T08:43:24.705Z,7.37
2023-04-06T08:46:31.516Z,7.20
2023-04-06T08:49:36.648Z,6.43
2023-04-06T08:52:41.470Z,7.97
2023-04-06T08:55:45.558Z,8.00
2023-04-06T08:58:49.719Z,6.90
2023-04-06T09:01:55.205Z,9.47
2023-04-06T09:04:58.923Z,7.83
2023-04-06T09:08:02.242Z,6.83
2023-04-06T09:11:05.973Z,7.50
2023-04-06T09:14:09.126Z,7.37
2023-04-06T09:17:24.013Z,7.33
2023-04-06T09:20:29.075Z,6.10
2023-04-06T09:23:32.460Z,7.90
2023-04-06T09:26:46.254Z,7.13
2023-04-06T09:29:49.351Z,7.40
2023-04-06T09:32:55.677Z,6.50
2023-04-06T09:35:59.025Z,7.80
2023-04-06T09:39:05.543Z,9.67
2023-04-06T09:42:08.643Z,7.23
2023-04-06T09:45:12.482Z,7.37
2023-04-06T09:48:17.083Z,8.23
2023-04-06T09:51:21.383Z,7.33
2023-04-06T09:54:25.581Z,7.93
2023-04-06T09:57:34.042Z,7.63
2023-04-06T10:00:45.008Z,7.60
2023-04-06T10:03:57.251Z,7.13
2023-04-06T10:07:02.001Z,8.30
2023-04-06T10:10:05.796Z,8.70
2023-04-06T10:13:09.595Z,8.47
2023-04-06T10:16:15.407Z,7.33
2023-04-06T10:19:26.759Z,8.83
2023-04-06T10:22:37.223Z,7.57
2023-04-06T10:25:40.273Z,7.80
2023-04-06T10:28:44.939Z,7.57
2023-04-06T10:31:51.300Z,8.63
2023-04-06T10:35:06.285Z,8.13
2023-04-06T10:38:09.369Z,6.93
2023-04-06T10:41:13.691Z,7.60
2023-04-06T10:44:22.712Z,7.90
2023-04-06T10:47:25.701Z,6.87
2023-04-06T10:50:32.087Z,7.40
2023-04-06T10:53:36.061Z,7.83
2023-04-06T10:56:40.830Z,8.67
2023-04-06T10:59:45.147Z,7.40
2023-04-06T11:02:48.655Z,8.60
2023-04-06T11:05:53.330Z,9.10
2023-04-06T11:08:57.124Z,8.07
2023-04-06T11:12:00.119Z,7.43
2023-04-06T11:15:05.419Z,7.67
2023-04-06T11:18:08.495Z,8.00
2023-04-06T11:21:13.059Z,7.53
2023-04-06T11:24:17.323Z,8.33
2023-04-06T11:27:21.684Z,8.20
2023-04-06T11:30:24.730Z,7.20
2023-04-06T11:33:27.794Z,6.80
2023-04-06T11:36:32.368Z,7.37
2023-04-06T11:39:41.329Z,7.37
2023-04-06T11:42:45.503Z,7.63
2023-04-06T11:45:48.943Z,7.03
2023-04-06T11:48:51.977Z,7.90
2023-04-06T11:51:56.194Z,7.70
2023-04-06T11:54:59.048Z,7.43
2023-04-06T11:58:01.999Z,6.47
2023-04-06T12:01:08.143Z,6.40
2023-04-06T12:04:11.013Z,6.90
2023-04-06T12:07:15.579Z,6.00
2023-04-06T12:10:18.476Z,6.27
2023-04-06T12:13:21.327Z,6.17
2023-04-06T12:16:24.261Z,6.60
2023-04-06T12:19:28.081Z,5.37
2023-04-06T12:22:32.849Z,6.40
2023-04-06T12:25:35.728Z,5.20
2023-04-06T12:28:38.680Z,5.47
2023-04-06T12:31:42.057Z,6.30
2023-04-06T12:34:44.960Z,5.70
2023-04-06T12:37:49.183Z,6.67
2023-04-06T12:40:52.060Z,7.33
2023-04-06T12:43:54.915Z,6.83
2023-04-06T12:46:57.823Z,7.37
2023-04-06T12:50:00.724Z,5.00
2023-04-06T12:53:05.005Z,5.13
2023-04-06T12:56:14.476Z,8.17
2023-04-06T12:59:17.663Z,4.97
2023-04-06T13:02:21.463Z,5.97
2023-04-06T13:05:24.541Z,8.50
2023-04-06T13:08:29.581Z,5.13
2023-04-06T13:11:32.555Z,6.93
2023-04-06T13:14:35.714Z,6.40
2023-04-06T13:17:38.656Z,6.30
2023-04-06T13:20:42.323Z,6.03
2023-04-06T13:23:46.593Z,5.70
2023-04-06T13:26:49.442Z,6.70
2023-04-06T13:29:52.368Z,6.07
2023-04-06T13:32:55.380Z,5.73
2023-04-06T13:35:58.324Z,6.17
2023-04-06T13:39:02.597Z,6.50
2023-04-06T13:42:05.790Z,5.20
2023-04-06T13:45:09.781Z,5.47
2023-04-06T13:48:12.697Z,6.20
2023-04-06T13:51:16.438Z,6.03
2023-04-06T13:54:22.135Z,5.50
2023-04-06T13:57:25.097Z,5.00
2023-04-06T14:00:28.029Z,5.53
2023-04-06T14:03:31.116Z,5.50
2023-04-06T14:06:34.053Z,4.53
2023-04-06T14:09:38.256Z,4.73
2023-04-06T14:12:41.595Z,7.03
2023-04-06T14:15:44.532Z,5.13
2023-04-06T14:18:47.418Z,4.73
2023-04-06T14:21:50.616Z,4.00
2023-04-06T14:24:54.808Z,4.38
2023-04-06T14:27:58.147Z,5.30
2023-04-06T14:31:01.540Z,4.43
2023-04-06T14:34:05.666Z,4.00
2023-04-06T14:37:08.607Z,4.33
2023-04-06T14:40:13.666Z,4.57
2023-04-06T14:43:16.692Z,4.33
2023-04-06T14:46:19.561Z,4.53
2023-04-06T14:49:22.528Z,4.43
2023-04-06T14:52:25.527Z,5.00
2023-04-06T14:55:29.773Z,4.30
2023-04-06T14:58:32.983Z,3.80
2023-04-06T15:01:37.273Z,3.53
2023-04-06T15:04:41.682Z,4.43
2023-04-06T15:07:44.542Z,3.50
2023-04-06T15:10:48.829Z,4.27
2023-04-06T15:13:51.713Z,2.93
2023-04-06T15:16:54.611Z,2.83
2023-04-06T15:19:57.604Z,3.30
2023-04-06T15:23:00.726Z,3.50
2023-04-06T15:26:05.001Z,4.53
2023-04-06T15:29:07.933Z,4.27
2023-04-06T15:32:11.775Z,4.17
2023-04-06T15:35:15.544Z,4.30
2023-04-06T15:38:18.467Z,3.57
2023-04-06T15:41:22.791Z,3.67
2023-04-06T15:44:25.710Z,4.57
2023-04-06T15:47:28.569Z,4.87
2023-04-06T15:50:32.535Z,4.43
2023-04-06T15:53:36.845Z,3.77
2023-04-06T15:56:41.848Z,3.40
2023-04-06T15:59:44.819Z,4.43
2023-04-06T16:02:47.832Z,4.10
2023-04-06T16:08:56.691Z,7.50
2023-04-06T16:12:01.740Z,5.50
2023-04-06T16:15:05.095Z,4.00
2023-04-06T16:18:07.968Z,5.57
2023-04-06T16:21:16.265Z,4.70
2023-04-06T16:24:19.116Z,4.87
2023-04-06T16:27:23.307Z,4.43
2023-04-06T16:30:26.777Z,4.27
2023-04-06T16:33:29.648Z,4.57
2023-04-06T16:36:33.800Z,4.93
2023-04-06T16:39:37.038Z,4.53
2023-04-06T16:42:43.264Z,4.27
2023-04-06T16:45:51.966Z,3.33
2023-04-06T16:48:55.920Z,4.70
2023-04-06T16:52:01.951Z,4.43
2023-04-06T16:55:06.774Z,3.93
2023-04-06T16:58:11.356Z,3.93
2023-04-06T17:01:20.942Z,4.17
2023-04-06T17:04:24.209Z,4.47
2023-04-06T17:07:32.350Z,3.43
2023-04-06T17:10:41.501Z,3.70
2023-04-06T17:13:56.564Z,3.73
2023-04-06T17:16:59.794Z,4.13
2023-04-06T17:20:02.696Z,3.90
2023-04-06T17:23:06.092Z,4.13
2023-04-06T17:26:09.504Z,4.30
2023-04-06T17:29:13.723Z,6.37
2023-04-06T17:32:16.999Z,4.20
2023-04-06T17:35:19.943Z,4.70
2023-04-06T17:38:23.879Z,7.10
2023-04-06T17:41:26.938Z,5.00
2023-04-06T17:44:31.676Z,5.17
2023-04-06T17:47:34.620Z,5.40
2023-04-06T17:50:39.934Z,4.37
2023-04-06T17:53:42.792Z,5.80
2023-04-06T17:56:48.922Z,6.20
2023-04-06T17:59:54.253Z,6.23
2023-04-06T18:02:57.294Z,6.27
2023-04-06T18:06:10.874Z,6.53
2023-04-06T18:09:13.794Z,6.70
2023-04-06T18:12:16.950Z,6.90
2023-04-06T18:15:21.353Z,6.90
2023-04-06T18:18:24.681Z,10.03
2023-04-06T18:21:27.839Z,7.37
2023-04-06T18:24:41.563Z,7.87
2023-04-06T18:27:45.999Z,8.87
2023-04-06T18:30:50.457Z,7.93
2023-04-06T18:33:54.576Z,7.77
2023-04-06T18:36:57.969Z,15.07
2023-04-06T18:40:01.099Z,8.77
2023-04-06T18:43:04.287Z,10.43
2023-04-06T18:46:13.531Z,7.60
2023-04-06T18:49:16.486Z,8.30
2023-04-06T18:52:19.335Z,9.90
2023-04-06T18:55:22.165Z,8.13
2023-04-06T18:58:26.071Z,8.73
2023-04-06T19:01:32.057Z,11.83
2023-04-06T19:04:35.124Z,9.27
2023-04-06T19:07:38.516Z,10.30
2023-04-06T19:10:41.573Z,9.30
2023-04-06T19:13:49.930Z,11.40
2023-04-06T19:16:54.348Z,10.07
2023-04-06T19:19:57.715Z,10.90
2023-04-06T19:23:00.817Z,9.90
2023-04-06T19:26:03.795Z,9.43
2023-04-06T19:29:06.772Z,10.27
2023-04-06T19:32:11.849Z,10.93
2023-04-06T19:35:14.942Z,13.43
2023-04-06T19:38:17.814Z,11.83
2023-04-06T19:41:21.529Z,13.67
2023-04-06T19:44:24.774Z,14.10
2023-04-06T19:47:29.225Z,16.93
2023-04-06T19:50:33.190Z,15.50
2023-04-06T19:53:36.630Z,15.73
2023-04-06T19:56:40.065Z,15.13
2023-04-06T19:59:43.701Z,15.87
2023-04-06T20:02:48.068Z,15.27
2023-04-06T20:05:51.003Z,17.77
2023-04-06T20:08:54.949Z,19.67
2023-04-06T20:11:57.858Z,23.63
2023-04-06T20:15:00.738Z,19.43
2023-04-06T20:18:05.134Z,25.93
2023-04-06T20:21:08.100Z,30.17
2023-04-06T20:24:12.046Z,31.43
2023-04-06T20:27:15.114Z,28.67
2023-04-06T20:30:17.982Z,34.33
2023-04-06T20:33:22.410Z,34.47
2023-04-06T20:36:25.483Z,32.23
2023-04-06T20:39:28.822Z,36.07
2023-04-06T20:42:31.709Z,33.53
2023-04-06T20:45:38.279Z,43.23
2023-04-06T20:48:42.497Z,41.47
2023-04-06T20:51:46.249Z,44.37
2023-04-06T20:54:50.699Z,44.10
2023-04-06T20:57:53.641Z,42.57
2023-04-06T21:00:56.562Z,40.20
2023-04-06T21:04:02.581Z,41.53
2023-04-06T21:07:07.113Z,38.23
2023-04-06T21:10:10.709Z,46.20
2023-04-06T21:13:13.765Z,35.57
2023-04-06T21:16:16.862Z,35.47
2023-04-06T21:19:21.149Z,35.70
2023-04-06T21:22:24.548Z,27.57
2023-04-06T21:25:27.443Z,23.10
2023-04-06T21:28:30.469Z,23.77
2023-04-06T21:31:34.807Z,24.50
2023-04-06T21:34:39.176Z,20.83
2023-04-06T21:37:42.075Z,18.07
2023-04-06T21:40:44.983Z,15.23
2023-04-06T21:43:47.816Z,11.20
2023-04-06T21:46:51.113Z,11.60
2023-04-06T21:49:55.384Z,12.60
2023-04-06T21:52:58.282Z,11.67
2023-04-06T21:56:02.621Z,10.73
2023-04-06T21:59:05.630Z,9.33
2023-04-06T22:02:08.560Z,9.17
2023-04-06T22:05:13.175Z,10.07
2023-04-06T22:08:25.398Z,10.37
2023-04-06T22:11:33.204Z,10.80
2023-04-06T22:14:37.075Z,9.77
2023-04-06T22:17:39.943Z,8.70
2023-04-06T22:20:44.370Z,8.97
2023-04-06T22:23:47.258Z,8.50
2023-04-06T22:26:50.096Z,8.77
2023-04-06T22:29:52.964Z,9.10
2023-04-06T22:32:55.878Z,10.27
2023-04-06T22:36:00.442Z,7.87
2023-04-06T22:39:03.338Z,7.77
2023-04-06T22:42:06.450Z,8.77
2023-04-06T22:45:10.598Z,8.77
2023-04-06T22:48:13.479Z,8.27
2023-04-06T22:51:17.690Z,8.40
2023-04-06T22:54:21.027Z,8.53
2023-04-06T22:57:24.271Z,7.93
2023-04-06T23:00:27.598Z,8.00
2023-04-06T23:03:30.604Z,7.33
2023-04-06T23:06:34.846Z,8.00
2023-04-06T23:09:37.760Z,8.67
2023-04-06T23:12:40.601Z,7.83
2023-04-06T23:15:43.954Z,7.60
2023-04-06T23:18:46.836Z,8.10
2023-04-06T23:21:51.346Z,7.10
2023-04-06T23:24:54.212Z,6.67
2023-04-06T23:27:57.067Z,7.20
2023-04-06T23:30:59.942Z,6.50
2023-04-06T23:34:03.077Z,5.90
2023-04-06T23:37:07.624Z,5.80
2023-04-06T23:40:11.190Z,5.83
2023-04-06T23:43:14.089Z,5.83
2023-04-06T23:46:17.772Z,6.03
2023-04-06T23:49:20.650Z,5.60
2023-04-06T23:52:24.924Z,5.10
2023-04-06T23:55:27.801Z,5.40
2023-04-06T23:58:30.726Z,5.80
